Time;durP1;ratioP1;P1;durP2;ratioP2;P2;SDS_P1;SDS_P2;PMS_P1;PMS_P2;Temp;Humidity;BMP_temperature;BMP_pressure;BME280_temperature;BME280_humidity;BME280_pressure;Samples;Min_cycle;Max_cycle;Signal;HPM_P1;HPM_P2
2023/01/11 00:00:17;;;;;;;2.83;0.90;;;8.80;99.90;;;;;;5096643;28;20032;-73
2023/01/11 00:02:44;;;;;;;3.95;0.90;;;8.80;99.90;;;;;;5097383;28;20043;-73
2023/01/11 00:05:10;;;;;;;5.78;0.90;;;8.80;99.90;;;;;;5096325;28;20047;-73
2023/01/11 00:07:37;;;;;;;4.60;0.85;;;8.90;99.90;;;;;;5097354;28;20028;-73
2023/01/11 00:10:04;;;;;;;2.53;0.90;;;8.90;99.90;;;;;;5114949;28;20028;-73
2023/01/11 00:12:30;;;;;;;2.45;0.70;;;8.90;99.90;;;;;;5097359;28;20020;-73
2023/01/11 00:14:56;;;;;;;2.03;0.98;;;8.90;99.90;;;;;;5097113;28;20074;-77
2023/01/11 00:17:21;;;;;;;1.20;0.70;;;8.90;99.90;;;;;;5115232;28;20079;-73
2023/01/11 00:19:47;;;;;;;2.60;0.77;;;9.00;99.90;;;;;;5097289;28;20034;-73
2023/01/11 00:22:13;;;;;;;4.18;0.60;;;9.00;99.90;;;;;;5114575;28;20026;-73
2023/01/11 00:24:38;;;;;;;2.38;0.70;;;9.00;99.90;;;;;;5097112;28;20169;-73
2023/01/11 00:27:04;;;;;;;2.25;0.70;;;9.00;99.90;;;;;;5113628;28;20023;-74
2023/01/11 00:29:29;;;;;;;1.90;0.60;;;9.00;99.90;;;;;;5096649;28;20096;-73
2023/01/11 00:31:55;;;;;;;1.85;0.60;;;9.00;99.90;;;;;;5097014;28;20456;-73
2023/01/11 00:34:20;;;;;;;2.28;0.60;;;9.10;99.90;;;;;;5096488;28;20027;-73
2023/01/11 00:36:46;;;;;;;1.88;0.60;;;9.00;99.90;;;;;;5115428;28;20027;-73
2023/01/11 00:39:12;;;;;;;2.30;0.57;;;9.10;99.90;;;;;;5114885;28;20429;-73
2023/01/11 00:49:56;;;;;;;1.35;0.43;;;9.10;99.90;;;;;;5114768;28;20042;-73
2023/01/11 00:52:21;;;;;;;1.27;0.60;;;9.10;99.90;;;;;;5114129;28;20027;-73
2023/01/11 00:54:47;;;;;;;0.43;0.35;;;9.10;99.90;;;;;;5096805;28;20453;-73
2023/01/11 00:57:13;;;;;;;2.38;0.70;;;9.10;99.90;;;;;;5095930;28;20034;-73
2023/01/11 00:59:39;;;;;;;2.88;0.65;;;9.20;99.90;;;;;;5096230;28;20036;-73
2023/01/11 01:02:05;;;;;;;0.80;0.50;;;9.10;99.90;;;;;;5095382;28;20023;-73
2023/01/11 01:04:30;;;;;;;1.98;0.50;;;9.20;99.90;;;;;;5096301;28;20119;-73
2023/01/11 01:06:56;;;;;;;2.08;0.60;;;9.20;99.90;;;;;;5114412;28;20354;-72
2023/01/11 01:09:22;;;;;;;1.98;0.70;;;9.20;99.90;;;;;;5113768;28;20039;-73
2023/01/11 01:11:47;;;;;;;2.17;0.70;;;9.20;99.90;;;;;;5114321;28;20475;-73
2023/01/11 01:14:28;;;;;;;0.65;0.40;;;9.20;99.90;;;;;;5095275;28;20028;-73
2023/01/11 01:16:56;;;;;;;2.42;0.60;;;9.20;99.90;;;;;;5095871;28;20047;-73
2023/01/11 01:19:22;;;;;;;3.30;0.60;;;9.20;99.90;;;;;;5095434;28;20495;-73
2023/01/11 01:21:49;;;;;;;4.32;0.50;;;9.20;99.90;;;;;;5114306;28;20086;-73
2023/01/11 01:24:15;;;;;;;0.77;0.40;;;9.20;99.90;;;;;;5113755;28;20028;-73
2023/01/11 01:26:41;;;;;;;3.53;0.70;;;9.20;99.90;;;;;;5095703;28;20024;-73
2023/01/11 01:29:06;;;;;;;1.55;0.50;;;9.20;99.90;;;;;;5095139;28;20108;-74
2023/01/11 01:31:32;;;;;;;0.77;0.40;;;9.20;99.90;;;;;;5095863;28;20454;-73
2023/01/11 01:33:58;;;;;;;0.95;0.40;;;9.20;99.90;;;;;;5113986;28;20500;-73
2023/01/11 01:36:24;;;;;;;1.35;0.40;;;9.20;99.90;;;;;;5095334;28;20034;-73
2023/01/11 01:38:49;;;;;;;0.95;0.50;;;9.20;99.90;;;;;;5094925;28;20389;-73
2023/01/11 01:41:15;;;;;;;3.15;0.73;;;9.30;99.90;;;;;;5098056;28;20103;-72
2023/01/11 01:43:55;;;;;;;1.63;0.45;;;9.30;99.90;;;;;;5098400;28;20388;-72
2023/01/11 01:46:25;;;;;;;1.52;0.47;;;9.30;99.90;;;;;;5095348;28;20602;-73
2023/01/11 01:49:00;;;;;;;0.95;0.35;;;9.30;99.90;;;;;;5095622;28;20036;-73
2023/01/11 01:51:41;;;;;;;1.17;0.40;;;9.40;99.90;;;;;;5095326;28;20030;-73
2023/01/11 01:54:15;;;;;;;0.65;0.40;;;9.40;99.90;;;;;;5095043;28;20026;-74
2023/01/11 01:56:49;;;;;;;1.48;0.30;;;9.40;99.90;;;;;;5095249;28;20050;-73
2023/01/11 01:59:16;;;;;;;1.38;0.45;;;9.30;99.90;;;;;;5094971;28;20118;-73
2023/01/11 02:01:46;;;;;;;2.95;0.40;;;9.30;99.90;;;;;;5095541;28;20024;-73
2023/01/11 02:04:38;;;;;;;1.05;0.40;;;9.30;99.90;;;;;;5094891;28;20115;-72
2023/01/11 02:07:25;;;;;;;3.85;0.60;;;9.30;99.90;;;;;;5112887;28;20061;-77
2023/01/11 02:09:57;;;;;;;0.38;0.35;;;9.30;99.90;;;;;;5094840;28;20523;-73
2023/01/11 02:12:25;;;;;;;0.57;0.40;;;9.30;99.90;;;;;;5094907;28;20486;-74
2023/01/11 02:14:53;;;;;;;1.10;0.57;;;9.30;99.90;;;;;;5096323;28;20032;-73
2023/01/11 02:17:20;;;;;;;0.52;0.40;;;9.30;99.90;;;;;;5092756;28;20052;-72
2023/01/11 02:19:48;;;;;;;1.75;0.50;;;9.30;99.90;;;;;;5094660;28;20024;-73
2023/01/11 02:22:37;;;;;;;2.38;0.40;;;9.20;99.90;;;;;;5092714;28;20121;-74
2023/01/11 02:25:37;;;;;;;1.25;0.32;;;9.20;99.90;;;;;;5096048;28;20032;-77
2023/01/11 02:28:24;;;;;;;1.27;0.60;;;9.10;99.90;;;;;;5096855;28;20377;-75
2023/01/11 02:31:30;;;;;;;1.85;0.65;;;9.10;99.90;;;;;;5093640;28;20031;-73
2023/01/11 02:34:04;;;;;;;4.57;0.63;;;9.00;99.90;;;;;;5052721;28;20052;-73
2023/01/11 02:36:43;;;;;;;3.47;0.50;;;9.00;99.90;;;;;;5091940;28;20025;-72
2023/01/11 02:39:50;;;;;;;2.47;0.50;;;9.00;99.90;;;;;;5092281;28;20028;-74
2023/01/11 02:45:36;;;;;;;2.13;0.70;;;9.00;99.90;;;;;;5091856;28;20026;-74
2023/01/11 02:48:13;;;;;;;2.97;0.60;;;9.00;99.90;;;;;;5091217;28;20042;-73
2023/01/11 02:50:45;;;;;;;2.70;0.60;;;9.00;99.90;;;;;;5097373;28;20057;-73
2023/01/11 02:53:23;;;;;;;1.85;0.50;;;9.00;99.90;;;;;;5095256;28;20058;-73
2023/01/11 02:55:53;;;;;;;2.60;0.60;;;9.00;99.90;;;;;;5097246;28;20020;-72
2023/01/11 02:58:21;;;;;;;2.10;0.63;;;9.00;99.90;;;;;;5094325;28;20034;-74
2023/01/11 03:00:49;;;;;;;1.73;0.50;;;9.00;99.90;;;;;;5095342;28;20437;-73
2023/01/11 03:03:18;;;;;;;0.50;0.30;;;9.00;99.90;;;;;;5096917;28;20070;-73
2023/01/11 03:06:13;;;;;;;3.30;0.50;;;9.10;99.90;;;;;;5095561;28;20059;-73
2023/01/11 03:09:04;;;;;;;0.90;0.60;;;9.00;99.90;;;;;;5084271;28;20122;-73
2023/01/11 03:15:04;;;;;;;1.77;0.45;;;9.00;99.90;;;;;;5096724;28;20506;-73
2023/01/11 03:17:29;;;;;;;2.05;0.50;;;9.10;99.90;;;;;;5103633;28;20487;-73
2023/01/11 03:20:08;;;;;;;1.63;0.40;;;9.10;99.90;;;;;;5098690;28;20031;-73
2023/01/11 03:22:58;;;;;;;2.22;0.45;;;9.10;99.90;;;;;;5098489;28;20055;-73
2023/01/11 03:25:38;;;;;;;1.95;0.50;;;9.10;99.90;;;;;;5116026;28;20023;-73
2023/01/11 03:28:24;;;;;;;0.30;0.30;;;9.20;99.90;;;;;;5098405;28;20070;-73
2023/01/11 03:31:21;;;;;;;0.30;0.20;;;9.20;99.90;;;;;;5098585;28;20043;-73
2023/01/11 03:34:11;;;;;;;1.20;0.40;;;9.20;99.90;;;;;;5098546;28;20081;-73
2023/01/11 03:36:45;;;;;;;3.75;0.50;;;9.30;99.90;;;;;;5109591;28;20027;-72
2023/01/11 03:39:33;;;;;;;1.75;0.40;;;9.30;99.90;;;;;;5129738;28;20465;-76
2023/01/11 03:42:00;;;;;;;3.17;0.80;;;9.30;99.90;;;;;;5105576;28;20054;-73
2023/01/11 03:44:30;;;;;;;0.95;0.60;;;9.30;99.90;;;;;;5097162;28;20066;-73
2023/01/11 03:47:02;;;;;;;0.93;0.30;;;9.30;99.90;;;;;;5097982;28;20069;-73
2023/01/11 03:49:35;;;;;;;1.42;0.47;;;9.40;99.90;;;;;;5097001;28;20039;-73
2023/01/11 03:52:02;;;;;;;2.08;0.40;;;9.40;99.90;;;;;;5097923;28;20030;-73
2023/01/11 03:54:30;;;;;;;0.47;0.25;;;9.40;99.90;;;;;;5097248;28;20536;-73
2023/01/11 03:57:25;;;;;;;0.70;0.40;;;9.50;99.90;;;;;;5097576;28;20434;-73
2023/01/11 03:59:50;;;;;;;1.67;0.50;;;9.50;99.90;;;;;;5096052;28;20067;-73
2023/01/11 04:02:40;;;;;;;1.48;0.63;;;9.50;99.90;;;;;;5096422;28;20058;-74
2023/01/11 04:05:08;;;;;;;1.58;0.47;;;9.50;99.90;;;;;;5084477;28;20123;-74
2023/01/11 04:07:33;;;;;;;1.13;0.60;;;9.50;99.90;;;;;;5097117;28;20031;-74
2023/01/11 04:09:59;;;;;;;2.60;0.57;;;9.60;99.90;;;;;;5097414;28;20380;-73
2023/01/11 04:12:25;;;;;;;0.95;0.40;;;9.60;99.90;;;;;;5096550;28;20087;-74
2023/01/11 04:14:51;;;;;;;0.75;0.40;;;9.60;99.90;;;;;;5115338;28;20027;-73
2023/01/11 04:17:16;;;;;;;0.90;0.40;;;9.60;99.90;;;;;;5093036;28;20076;-74
2023/01/11 04:19:42;;;;;;;0.82;0.40;;;9.60;99.90;;;;;;5093724;28;20031;-73
2023/01/11 04:22:08;;;;;;;1.63;0.43;;;9.70;99.90;;;;;;5094954;28;20024;-74
2023/01/11 04:24:33;;;;;;;0.55;0.40;;;9.70;99.90;;;;;;5093272;28;20370;-74
2023/01/11 04:26:59;;;;;;;2.58;0.60;;;9.80;99.90;;;;;;5093854;28;20500;-74
2023/01/11 04:29:24;;;;;;;1.65;0.40;;;9.80;99.90;;;;;;5093157;28;20043;-73
2023/01/11 04:31:50;;;;;;;1.08;0.35;;;9.80;99.90;;;;;;5095044;28;20458;-73
2023/01/11 04:34:15;;;;;;;0.30;0.30;;;9.80;99.90;;;;;;5093242;28;20032;-75
2023/01/11 04:36:41;;;;;;;1.20;0.47;;;9.80;99.90;;;;;;5093602;28;20465;-74
2023/01/11 04:39:09;;;;;;;2.63;0.40;;;9.80;99.90;;;;;;5094644;28;20112;-73
2023/01/11 04:44:20;;;;;;;1.17;0.30;;;9.90;99.90;;;;;;5094223;28;20054;-74
2023/01/11 04:46:46;;;;;;;1.75;0.50;;;9.90;99.90;;;;;;5093152;28;20024;-73
2023/01/11 04:49:11;;;;;;;0.50;0.38;;;9.90;99.90;;;;;;5094235;28;20040;-76
2023/01/11 04:51:37;;;;;;;0.95;0.40;;;9.90;99.90;;;;;;5092889;28;20028;-74
2023/01/11 04:54:03;;;;;;;1.73;0.50;;;9.90;99.90;;;;;;5092996;28;20024;-74
2023/01/11 04:56:28;;;;;;;1.13;0.52;;;9.90;99.90;;;;;;5092340;28;20028;-74
2023/01/11 04:58:54;;;;;;;2.15;0.47;;;10.00;99.90;;;;;;5093050;28;20533;-74
2023/01/11 05:01:20;;;;;;;1.13;0.38;;;10.00;99.90;;;;;;5093488;28;20049;-74
2023/01/11 05:03:45;;;;;;;1.77;0.40;;;10.00;99.90;;;;;;5094198;28;20031;-74
2023/01/11 05:06:12;;;;;;;1.65;0.30;;;10.00;99.90;;;;;;5092838;28;20076;-74
2023/01/11 05:08:38;;;;;;;0.60;0.30;;;10.00;99.90;;;;;;5093371;28;20385;-74
2023/01/11 05:11:06;;;;;;;2.33;0.40;;;10.10;99.90;;;;;;5092916;28;20035;-74
2023/01/11 05:13:40;;;;;;;1.05;0.30;;;10.10;99.90;;;;;;5091975;28;20038;-74
2023/01/11 05:16:08;;;;;;;0.30;0.28;;;10.10;99.90;;;;;;5092634;28;20035;-73
2023/01/11 05:18:34;;;;;;;1.35;0.30;;;10.20;99.90;;;;;;5091514;28;20606;-73
2023/01/11 05:21:00;;;;;;;0.90;0.30;;;10.20;99.90;;;;;;5092431;28;20073;-74
2023/01/11 05:23:26;;;;;;;0.38;0.20;;;10.20;99.90;;;;;;5093056;28;20024;-74
2023/01/11 05:25:52;;;;;;;0.55;0.20;;;10.30;99.90;;;;;;5092637;28;20074;-73
2023/01/11 05:28:17;;;;;;;2.90;0.50;;;10.30;99.90;;;;;;5091997;28;20449;-76
2023/01/11 05:30:49;;;;;;;1.52;0.30;;;10.30;99.90;;;;;;5092513;28;20035;-73
2023/01/11 05:33:14;;;;;;;0.63;0.40;;;10.30;99.90;;;;;;5092389;28;20016;-77
2023/01/11 05:35:40;;;;;;;0.47;0.30;;;10.40;99.90;;;;;;5092031;28;20031;-73
2023/01/11 05:38:05;;;;;;;0.30;0.20;;;10.40;99.90;;;;;;5092372;28;20046;-74
2023/01/11 05:40:31;;;;;;;0.77;0.30;;;10.40;99.90;;;;;;5091684;28;20465;-73
2023/01/11 05:42:56;;;;;;;1.33;0.28;;;10.40;99.90;;;;;;5092066;28;20046;-73
2023/01/11 05:45:28;;;;;;;2.88;0.40;;;10.40;99.90;;;;;;5091339;28;20020;-74
2023/01/11 05:47:54;;;;;;;0.20;0.20;;;10.40;99.90;;;;;;5093088;28;20021;-74
2023/01/11 05:50:20;;;;;;;0.40;0.30;;;10.40;99.90;;;;;;5091431;28;20040;-75
2023/01/11 05:52:45;;;;;;;0.52;0.20;;;10.40;99.90;;;;;;5092022;28;20027;-74
2023/01/11 05:55:11;;;;;;;2.70;0.32;;;10.40;99.90;;;;;;5091908;28;20028;-73
2023/01/11 05:57:40;;;;;;;0.20;0.20;;;10.40;99.90;;;;;;5092098;28;20354;-74
2023/01/11 06:00:07;;;;;;;1.30;0.20;;;10.40;99.90;;;;;;5091576;28;20035;-74
2023/01/11 06:02:33;;;;;;;0.30;0.20;;;10.40;99.90;;;;;;5090927;28;20028;-73
2023/01/11 06:04:59;;;;;;;0.32;0.28;;;10.40;99.90;;;;;;5092952;28;20027;-74
2023/01/11 06:07:25;;;;;;;0.63;0.20;;;10.40;99.90;;;;;;5090844;28;20365;-73
2023/01/11 06:09:50;;;;;;;0.20;0.20;;;10.40;99.90;;;;;;5092770;28;20036;-74
2023/01/11 06:12:16;;;;;;;1.15;0.30;;;10.40;99.90;;;;;;5092637;28;20032;-78
2023/01/11 06:14:41;;;;;;;0.30;0.20;;;10.40;99.90;;;;;;5091014;28;20106;-74
2023/01/11 06:17:07;;;;;;;0.30;0.20;;;10.40;99.90;;;;;;5091391;28;20056;-74
2023/01/11 06:19:33;;;;;;;0.40;0.20;;;10.40;99.90;;;;;;5092253;28;20106;-74
2023/01/11 06:21:58;;;;;;;0.98;0.20;;;10.40;99.90;;;;;;5092631;28;20127;-74
2023/01/11 06:24:24;;;;;;;1.02;0.20;;;10.40;99.90;;;;;;5091306;28;20028;-74
2023/01/11 06:26:53;;;;;;;0.45;0.30;;;10.40;99.90;;;;;;5091375;28;20076;-74
2023/01/11 06:29:19;;;;;;;0.68;0.30;;;10.40;99.90;;;;;;5091892;28;20040;-77
2023/01/11 06:31:44;;;;;;;1.17;0.30;;;10.30;99.90;;;;;;5092414;28;20512;-73
2023/01/11 06:34:10;;;;;;;0.68;0.30;;;10.40;99.90;;;;;;5092755;28;20028;-74
2023/01/11 06:36:36;;;;;;;0.20;0.20;;;10.40;99.90;;;;;;5090844;28;20024;-74
2023/01/11 06:39:02;;;;;;;0.30;0.20;;;10.30;99.90;;;;;;5092810;28;20085;-73
2023/01/11 06:41:28;;;;;;;0.60;0.22;;;10.30;99.90;;;;;;5090985;28;20020;-74
2023/01/11 06:43:53;;;;;;;0.50;0.20;;;10.30;99.90;;;;;;5092758;28;20047;-73
2023/01/11 06:46:19;;;;;;;3.10;0.50;;;10.30;99.90;;;;;;5091366;28;20020;-75
2023/01/11 06:48:45;;;;;;;0.77;0.30;;;10.30;99.90;;;;;;5091066;28;20470;-74
2023/01/11 06:51:11;;;;;;;0.25;0.20;;;10.30;99.90;;;;;;5092353;28;20024;-74
2023/01/11 06:53:38;;;;;;;0.47;0.30;;;10.40;99.90;;;;;;5091944;28;20093;-74
2023/01/11 06:56:04;;;;;;;0.95;0.20;;;10.40;99.90;;;;;;5091544;28;20115;-74
2023/01/11 06:58:30;;;;;;;0.45;0.30;;;10.40;99.90;;;;;;5090743;28;20495;-74
2023/01/11 07:00:56;;;;;;;0.52;0.30;;;10.40;99.90;;;;;;5091249;28;20031;-73
2023/01/11 07:03:23;;;;;;;0.40;0.32;;;10.50;99.90;;;;;;5092390;28;20059;-75
2023/01/11 07:05:50;;;;;;;0.47;0.22;;;10.40;99.90;;;;;;5091412;28;20035;-74
2023/01/11 07:08:15;;;;;;;0.10;0.10;;;10.50;99.90;;;;;;5091253;28;20020;-73
2023/01/11 07:10:42;;;;;;;0.35;0.20;;;10.50;99.90;;;;;;5091932;28;20039;-74
2023/01/11 07:13:14;;;;;;;0.20;0.20;;;10.50;99.90;;;;;;5091347;28;20020;-74
2023/01/11 07:15:40;;;;;;;0.30;0.30;;;10.50;99.90;;;;;;5090481;28;20465;-74
2023/01/11 07:18:07;;;;;;;0.35;0.28;;;10.50;99.90;;;;;;5090800;28;20136;-74
2023/01/11 07:20:32;;;;;;;0.60;0.35;;;10.60;99.90;;;;;;5090512;28;20020;-74
2023/01/11 07:22:59;;;;;;;0.22;0.17;;;10.60;99.90;;;;;;5092096;28;20032;-74
2023/01/11 07:25:26;;;;;;;0.43;0.20;;;10.60;99.90;;;;;;5090661;28;20089;-74
2023/01/11 07:28:01;;;;;;;0.60;0.20;;;10.60;99.90;;;;;;5090928;28;20032;-74
2023/01/11 07:30:28;;;;;;;0.20;0.20;;;10.60;99.90;;;;;;5091335;28;20058;-75
2023/01/11 07:32:55;;;;;;;0.22;0.22;;;10.70;99.90;;;;;;5091136;28;20035;-74
2023/01/11 07:35:21;;;;;;;1.35;0.50;;;10.70;99.90;;;;;;5092451;28;20497;-76
2023/01/11 07:37:46;;;;;;;1.65;0.30;;;10.70;99.90;;;;;;5094390;28;20119;-74
2023/01/11 07:40:15;;;;;;;0.55;0.30;;;10.70;99.90;;;;;;5094553;28;20032;-74
2023/01/11 07:45:34;;;;;;;0.25;0.25;;;10.80;99.90;;;;;;5095349;28;20436;-73
2023/01/11 07:48:01;;;;;;;0.30;0.20;;;10.80;99.90;;;;;;5094388;28;20028;-74
2023/01/11 07:50:27;;;;;;;0.88;0.22;;;10.80;99.90;;;;;;5093614;28;20032;-74
2023/01/11 07:52:52;;;;;;;1.40;0.20;;;10.80;99.90;;;;;;5094304;28;20024;-74
2023/01/11 07:55:18;;;;;;;0.22;0.20;;;10.80;99.90;;;;;;5094197;28;20032;-74
2023/01/11 07:57:43;;;;;;;1.23;0.30;;;10.80;99.90;;;;;;5093386;28;20027;-74
2023/01/11 08:00:10;;;;;;;0.15;0.10;;;10.90;99.90;;;;;;5094325;28;20085;-74
2023/01/11 08:02:35;;;;;;;0.55;0.20;;;10.90;99.90;;;;;;5093729;28;20028;-73
2023/01/11 08:05:01;;;;;;;0.57;0.38;;;10.90;99.90;;;;;;5093985;28;20077;-74
2023/01/11 08:07:26;;;;;;;0.45;0.30;;;10.90;99.90;;;;;;5093626;28;20031;-77
2023/01/11 08:09:52;;;;;;;0.20;0.20;;;10.90;99.90;;;;;;5093734;28;20028;-74
2023/01/11 08:15:02;;;;;;;0.20;0.20;;;10.90;99.90;;;;;;5095347;28;20404;-74
2023/01/11 08:17:27;;;;;;;0.20;0.20;;;11.00;99.90;;;;;;5093084;28;20048;-74
2023/01/11 08:19:54;;;;;;;1.27;0.20;;;11.00;99.90;;;;;;5094161;28;20024;-73
2023/01/11 08:22:20;;;;;;;0.10;0.10;;;11.00;99.90;;;;;;5095202;28;20027;-74
2023/01/11 08:24:46;;;;;;;0.10;0.10;;;11.00;99.90;;;;;;5094370;28;20072;-74
2023/01/11 08:27:12;;;;;;;0.77;0.30;;;11.00;99.90;;;;;;5093420;28;20488;-73
2023/01/11 08:29:38;;;;;;;0.20;0.20;;;11.00;99.90;;;;;;5085817;28;20032;-75
2023/01/11 08:32:04;;;;;;;0.47;0.30;;;11.00;99.90;;;;;;5093856;28;20413;-73
2023/01/11 08:34:30;;;;;;;2.88;0.40;;;11.00;99.90;;;;;;5080328;28;20042;-74
2023/01/11 08:36:56;;;;;;;0.30;0.30;;;11.00;99.90;;;;;;5089005;28;20024;-74
2023/01/11 08:39:23;;;;;;;0.73;0.30;;;11.00;99.90;;;;;;5094296;28;20077;-77
2023/01/11 08:41:49;;;;;;;0.50;0.20;;;11.00;99.90;;;;;;5086116;28;20186;-75
2023/01/11 08:44:15;;;;;;;0.80;0.25;;;11.10;99.90;;;;;;5093129;28;20106;-74
2023/01/11 08:46:42;;;;;;;0.40;0.28;;;11.00;99.90;;;;;;5091513;28;20078;-74
2023/01/11 08:49:11;;;;;;;1.02;0.30;;;11.00;99.90;;;;;;5092600;28;20040;-74
2023/01/11 08:51:40;;;;;;;1.10;0.25;;;11.00;99.90;;;;;;5092524;28;20073;-74
2023/01/11 08:54:11;;;;;;;0.88;0.32;;;11.10;99.90;;;;;;5093033;28;20032;-74
2023/01/11 08:56:37;;;;;;;0.38;0.20;;;11.10;99.90;;;;;;5092002;28;20477;-74
2023/01/11 08:59:04;;;;;;;0.55;0.30;;;11.00;99.90;;;;;;5089510;28;20036;-73
2023/01/11 09:01:29;;;;;;;0.40;0.25;;;11.00;99.90;;;;;;5083692;28;20036;-75
2023/01/11 09:03:55;;;;;;;1.65;0.30;;;11.00;99.90;;;;;;5092377;28;20032;-73
2023/01/11 09:06:21;;;;;;;0.47;0.20;;;11.00;99.90;;;;;;5092260;28;20461;-74
2023/01/11 09:08:47;;;;;;;0.85;0.30;;;11.00;99.90;;;;;;5091658;28;20028;-74
2023/01/11 09:13:57;;;;;;;1.13;0.20;;;10.90;99.90;;;;;;5093939;28;20035;-73
2023/01/11 09:16:23;;;;;;;0.47;0.20;;;10.90;99.90;;;;;;5092397;28;20326;-74
2023/01/11 09:18:49;;;;;;;0.60;0.30;;;10.90;99.90;;;;;;5091727;28;20090;-74
2023/01/11 09:21:14;;;;;;;0.45;0.30;;;10.80;99.90;;;;;;5092374;28;20024;-74
2023/01/11 09:23:40;;;;;;;0.75;0.30;;;10.80;99.90;;;;;;5091871;28;20492;-74
2023/01/11 09:26:06;;;;;;;0.65;0.30;;;10.70;99.90;;;;;;5093522;28;20492;-74
2023/01/11 09:28:31;;;;;;;0.65;0.30;;;10.70;99.90;;;;;;5091781;28;20051;-74
2023/01/11 09:30:57;;;;;;;0.40;0.32;;;10.70;99.90;;;;;;5089423;28;20028;-74
2023/01/11 09:33:22;;;;;;;0.80;0.30;;;10.60;99.90;;;;;;5092600;28;20020;-73
2023/01/11 09:35:50;;;;;;;0.70;0.30;;;10.50;99.90;;;;;;5092869;28;20027;-74
2023/01/11 09:38:16;;;;;;;0.95;0.30;;;10.50;99.90;;;;;;5092256;28;20063;-74
2023/01/11 09:41:12;;;;;;;0.98;0.40;;;10.50;99.90;;;;;;5091545;28;20062;-75
2023/01/11 09:43:50;;;;;;;1.13;0.40;;;10.50;99.90;;;;;;5092829;28;20028;-74
2023/01/11 09:46:17;;;;;;;0.75;0.30;;;10.50;99.90;;;;;;5092103;28;20495;-74
2023/01/11 09:48:50;;;;;;;1.80;0.47;;;10.40;99.90;;;;;;5091268;28;20032;-74
2023/01/11 09:51:18;;;;;;;1.60;0.20;;;10.50;99.90;;;;;;5093386;28;20024;-73
2023/01/11 09:53:51;;;;;;;0.73;0.40;;;10.50;99.90;;;;;;5092808;28;20073;-73
2023/01/11 09:56:23;;;;;;;0.70;0.20;;;10.50;99.90;;;;;;5091888;28;20381;-74
2023/01/11 09:58:55;;;;;;;1.20;0.45;;;10.50;99.90;;;;;;5088083;28;20032;-74
2023/01/11 10:02:04;;;;;;;0.60;0.30;;;10.50;99.90;;;;;;5082438;28;20039;-74
2023/01/11 10:04:52;;;;;;;1.45;0.55;;;10.50;99.90;;;;;;5013408;28;20025;-78
2023/01/11 10:07:53;;;;;;;1.67;0.85;;;10.50;99.90;;;;;;5088963;28;20039;-74
2023/01/11 10:10:46;;;;;;;3.40;0.30;;;10.50;99.90;;;;;;5091438;28;20024;-74
2023/01/11 10:13:47;;;;;;;1.75;0.50;;;10.50;99.90;;;;;;5091832;28;20028;-74
2023/01/11 10:16:46;;;;;;;1.27;0.30;;;10.50;99.90;;;;;;5091401;28;20035;-74
2023/01/11 10:19:24;;;;;;;0.93;0.40;;;10.50;99.90;;;;;;5091448;28;20293;-74
2023/01/11 10:21:53;;;;;;;0.60;0.40;;;10.50;99.90;;;;;;5090574;28;20211;-74
2023/01/11 10:24:39;;;;;;;0.85;0.47;;;10.50;99.90;;;;;;5092407;28;20016;-73
2023/01/11 10:27:25;;;;;;;2.20;0.50;;;10.60;99.90;;;;;;5092068;28;20070;-74
2023/01/11 10:32:52;;;;;;;2.30;0.35;;;10.60;99.90;;;;;;5071674;28;20466;-78
2023/01/11 10:35:56;;;;;;;0.80;0.40;;;10.60;99.90;;;;;;5071158;28;20024;-74
2023/01/11 10:41:33;;;;;;;1.90;0.40;;;10.60;99.90;;;;;;5051322;28;20036;-73
2023/01/11 10:44:08;;;;;;;3.83;0.52;;;10.60;99.90;;;;;;5087772;28;20403;-74
2023/01/11 10:46:43;;;;;;;1.63;0.50;;;10.50;99.90;;;;;;5075480;28;20020;-74
2023/01/11 10:49:37;;;;;;;2.05;0.40;;;10.60;99.90;;;;;;5090835;28;20032;-73
2023/01/11 10:52:40;;;;;;;2.10;0.50;;;10.60;99.90;;;;;;5090550;28;20020;-74
2023/01/11 10:55:54;;;;;;;0.98;0.50;;;10.60;99.90;;;;;;5048137;28;20343;-74
2023/01/11 10:58:52;;;;;;;0.77;0.40;;;10.60;99.90;;;;;;5067433;28;20051;-74
2023/01/11 11:01:47;;;;;;;0.60;0.40;;;10.60;99.90;;;;;;5027498;28;20045;-74
2023/01/11 11:05:09;;;;;;;0.43;0.40;;;10.60;99.90;;;;;;5088187;28;20111;-74
2023/01/11 11:07:44;;;;;;;2.10;0.50;;;10.60;99.90;;;;;;5051883;28;20032;-74
2023/01/11 11:10:59;;;;;;;0.85;0.40;;;10.60;99.90;;;;;;5092363;28;20055;-73
2023/01/11 11:14:06;;;;;;;1.52;0.50;;;10.60;99.90;;;;;;5017099;28;20142;-73
2023/01/11 11:17:06;;;;;;;1.52;0.50;;;10.60;99.90;;;;;;4997410;28;20560;-74
2023/01/11 11:19:32;;;;;;;0.70;0.50;;;10.60;99.90;;;;;;5001704;28;20069;-75
2023/01/11 11:21:58;;;;;;;1.80;0.55;;;10.60;99.90;;;;;;4994094;28;20046;-73
2023/01/11 11:24:34;;;;;;;0.73;0.40;;;10.60;99.90;;;;;;4995788;28;20038;-74
2023/01/11 11:27:21;;;;;;;1.13;0.50;;;10.60;99.90;;;;;;4993561;28;20130;-72
2023/01/11 11:29:52;;;;;;;1.70;0.40;;;10.60;99.90;;;;;;5002495;28;20107;-73
2023/01/11 11:32:23;;;;;;;2.65;0.40;;;10.60;99.90;;;;;;4995247;28;20037;-73
2023/01/11 11:34:49;;;;;;;1.85;0.40;;;10.60;99.90;;;;;;4998787;28;20038;-73
2023/01/11 11:37:21;;;;;;;2.22;0.68;;;10.60;99.90;;;;;;4996637;28;20116;-73
2023/01/11 11:39:49;;;;;;;0.85;0.40;;;10.60;99.90;;;;;;4982292;28;20037;-73
2023/01/11 11:42:16;;;;;;;2.15;0.70;;;10.60;99.90;;;;;;4994618;28;20030;-73
2023/01/11 11:44:42;;;;;;;0.55;0.45;;;10.60;99.90;;;;;;5032752;28;20032;-73
2023/01/11 11:47:15;;;;;;;3.00;0.60;;;10.60;99.90;;;;;;5073667;28;20031;-72
2023/01/11 11:49:41;;;;;;;1.23;0.43;;;10.60;99.90;;;;;;5096490;28;20046;-73
2023/01/11 11:52:12;;;;;;;0.95;0.30;;;10.50;99.90;;;;;;5095220;28;20485;-73
2023/01/11 11:54:51;;;;;;;1.38;0.30;;;10.50;99.90;;;;;;5097040;28;20019;-73
2023/01/11 11:57:37;;;;;;;0.52;0.43;;;10.50;99.90;;;;;;5096919;28;20032;-73
2023/01/11 12:00:07;;;;;;;1.40;0.50;;;10.60;99.90;;;;;;5084746;28;20036;-73
2023/01/11 12:02:35;;;;;;;1.25;0.47;;;10.60;99.90;;;;;;5094756;28;20032;-77
2023/01/11 12:05:07;;;;;;;0.30;0.30;;;10.60;99.90;;;;;;5076987;28;20088;-73
2023/01/11 12:07:41;;;;;;;;;;;10.50;99.90;;;;;;5089413;28;20023;-75
2023/01/11 12:10:28;;;;;;;0.70;0.50;;;10.50;99.90;;;;;;5097302;28;19912;-72
2023/01/11 12:13:02;;;;;;;0.47;0.20;;;10.50;99.90;;;;;;5096603;28;20083;-73
2023/01/11 12:15:33;;;;;;;0.40;0.30;;;10.50;99.90;;;;;;5097234;28;20377;-73
2023/01/11 12:18:25;;;;;;;1.02;0.50;;;10.50;99.90;;;;;;5115099;28;20499;-73
2023/01/11 12:20:52;;;;;;;0.63;0.40;;;10.50;99.90;;;;;;5099797;28;20166;-73
2023/01/11 12:23:25;;;;;;;0.80;0.40;;;10.50;99.90;;;;;;5114318;28;20100;-74
2023/01/11 12:26:06;;;;;;;0.75;0.50;;;10.50;99.90;;;;;;5095776;28;20533;-73
2023/01/11 12:28:56;;;;;;;0.80;0.32;;;10.60;99.90;;;;;;5096734;28;20031;-74
2023/01/11 12:31:33;;;;;;;1.73;0.55;;;10.60;99.90;;;;;;5087114;28;20028;-74
2023/01/11 12:34:18;;;;;;;0.73;0.30;;;10.50;99.90;;;;;;5114220;28;20098;-74
2023/01/11 12:37:02;;;;;;;0.80;0.47;;;10.60;99.90;;;;;;5075896;28;20028;-74
2023/01/11 12:39:27;;;;;;;1.10;0.50;;;10.60;99.90;;;;;;5094450;28;20112;-72
2023/01/11 12:42:08;;;;;;;1.38;0.60;;;10.60;99.90;;;;;;5090697;28;20024;-74
2023/01/11 12:44:42;;;;;;;1.75;0.55;;;10.60;99.90;;;;;;5079917;28;20019;-77
2023/01/11 12:47:54;;;;;;;1.40;0.70;;;10.50;99.90;;;;;;5114811;28;20020;-73
2023/01/11 12:50:36;;;;;;;1.30;0.65;;;10.50;99.90;;;;;;5058607;28;20042;-74
2023/01/11 12:53:26;;;;;;;2.50;0.80;;;10.50;99.90;;;;;;5096418;28;20031;-74
2023/01/11 12:55:56;;;;;;;1.67;0.90;;;10.50;99.90;;;;;;5095688;28;20366;-74
2023/01/11 12:58:49;;;;;;;1.42;0.63;;;10.60;99.90;;;;;;5096230;28;20087;-73
2023/01/11 13:01:19;;;;;;;1.73;0.75;;;10.60;99.90;;;;;;5103997;28;20484;-74
2023/01/11 13:04:15;;;;;;;2.47;0.77;;;10.60;99.90;;;;;;5095535;28;20020;-74
2023/01/11 13:06:55;;;;;;;1.30;0.50;;;10.60;99.90;;;;;;5075507;28;20016;-74
2023/01/11 13:09:45;;;;;;;2.85;0.80;;;10.60;99.90;;;;;;5094135;28;20477;-73
2023/01/11 13:12:35;;;;;;;1.10;0.60;;;10.60;99.90;;;;;;5093730;28;20024;-74
2023/01/11 13:15:31;;;;;;;2.15;1.00;;;10.60;99.90;;;;;;5092190;28;20031;-75
2023/01/11 13:18:07;;;;;;;1.23;0.70;;;10.60;99.90;;;;;;5071264;28;20110;-74
2023/01/11 13:20:48;;;;;;;1.25;0.68;;;10.60;99.90;;;;;;5072266;28;20468;-74
2023/01/11 13:23:22;;;;;;;1.50;0.70;;;10.50;99.90;;;;;;5073430;28;20473;-74
2023/01/11 13:25:51;;;;;;;0.70;0.60;;;10.50;99.90;;;;;;5086197;28;20495;-74
2023/01/11 13:28:27;;;;;;;1.77;0.60;;;10.50;99.90;;;;;;5093685;28;20393;-73
2023/01/11 13:30:53;;;;;;;1.55;0.68;;;10.60;99.90;;;;;;5091709;28;20511;-74
2023/01/11 13:33:26;;;;;;;1.05;0.60;;;10.70;99.90;;;;;;5092406;28;20082;-73
2023/01/11 13:36:00;;;;;;;1.58;0.80;;;10.70;99.90;;;;;;5091579;28;20362;-74
2023/01/11 13:38:33;;;;;;;3.83;0.60;;;10.70;99.90;;;;;;5092096;28;20372;-74
2023/01/11 13:41:14;;;;;;;0.82;0.60;;;10.70;99.90;;;;;;5091477;28;20036;-74
2023/01/11 13:43:46;;;;;;;0.85;0.70;;;10.60;99.90;;;;;;5091457;28;20427;-74
2023/01/11 13:46:51;;;;;;;1.23;0.73;;;10.60;99.90;;;;;;5091847;28;20031;-74
2023/01/11 13:49:39;;;;;;;1.27;0.80;;;10.70;99.90;;;;;;5092045;28;20032;-74